Time;durP1;ratioP1;P1;durP2;ratioP2;P2;SDS_P1;SDS_P2;PMS_P1;PMS_P2;Temp;Humidity;BMP_temperature;BMP_pressure;BME280_temperature;BME280_humidity;BME280_pressure;Samples;Min_cycle;Max_cycle;Signal;HPM_P1;HPM_P2
2022/04/12 00:01:05;;;;;;;5.70;2.70;;;;;;;-145.69;75.99;71933.72;5073693;28;20205;-75
2022/04/12 00:03:35;;;;;;;5.03;2.83;;;;;;;-145.69;76.45;71931.72;5073791;28;20221;-76
2022/04/12 00:06:04;;;;;;;5.63;2.60;;;;;;;-145.69;74.42;71905.88;5072925;28;20221;-75
2022/04/12 00:08:30;;;;;;;3.47;1.97;;;;;;;-145.69;75.26;71915.81;5071312;28;20214;-75
2022/04/12 00:10:57;;;;;;;4.23;2.30;;;;;;;-145.69;73.00;71899.88;5073468;28;20573;-75
2022/04/12 00:13:26;;;;;;;4.37;2.30;;;;;;;-145.69;74.20;71903.88;5073348;28;20221;-75
2022/04/12 00:15:52;;;;;;;5.73;2.70;;;;;;;-145.69;76.26;71935.72;5073006;28;20238;-75
2022/04/12 00:21:03;;;;;;;2.93;2.23;;;;;;;-145.69;74.90;71917.81;5073489;28;20286;-75
2022/04/12 00:23:33;;;;;;;3.97;2.00;;;;;;;-145.69;75.55;71911.84;5073467;28;20195;-75
2022/04/12 00:26:02;;;;;;;5.53;2.17;;;;;;;-145.69;74.39;71905.88;5072875;28;20190;-75
2022/04/12 00:28:31;;;;;;;5.00;2.30;;;;;;;-145.69;75.05;71909.84;5073196;28;20564;-75
2022/04/12 00:31:00;;;;;;;6.83;2.50;;;;;;;-145.69;72.98;71883.97;5073305;28;20244;-75
2022/04/12 00:33:27;;;;;;;4.67;2.03;;;;;;;-145.69;73.01;71891.94;5073227;28;20211;-75
2022/04/12 00:35:56;;;;;;;6.67;2.60;;;;;;;-145.69;73.57;71893.91;5073105;28;20223;-75
2022/04/12 00:38:23;;;;;;;4.30;2.23;;;;;;;-145.69;72.45;71893.91;5073259;28;20289;-75
2022/04/12 00:40:53;;;;;;;4.83;1.97;;;;;;;-145.69;72.61;71895.91;5072527;28;20562;-75
2022/04/12 00:43:30;;;;;;;6.57;2.37;;;;;;;-145.69;74.04;71901.88;5072708;28;20195;-75
2022/04/12 00:46:00;;;;;;;3.90;2.17;;;;;;;-145.69;75.41;71911.84;5072921;28;20190;-75
2022/04/12 00:48:27;;;;;;;5.13;2.50;;;;;;;-145.69;77.74;71949.66;5073132;28;20203;-75
2022/04/12 00:50:54;;;;;;;4.33;2.50;;;;;;;-145.69;76.43;71941.69;5072500;28;20212;-75
2022/04/12 00:53:23;;;;;;;7.57;2.33;;;;;;;-145.69;77.45;71951.63;5072804;28;20206;-75
2022/04/12 00:55:49;;;;;;;5.50;2.77;;;;;;;-145.69;75.91;71943.69;5072794;28;20254;-75
2022/04/12 00:58:16;;;;;;;6.28;2.47;;;;;;;-145.69;75.79;71941.69;5072118;28;20441;-75
2022/04/12 01:00:43;;;;;;;5.43;2.30;;;;;;;-145.69;77.59;71959.59;5072444;28;20207;-75
2022/04/12 01:03:10;;;;;;;4.40;2.33;;;;;;;-145.69;75.77;71949.66;5072803;28;20282;-75
2022/04/12 01:05:41;;;;;;;5.67;2.37;;;;;;;-145.69;77.52;71959.59;5072356;28;20389;-75
2022/04/12 01:08:09;;;;;;;5.20;2.33;;;;;;;-145.69;78.26;71973.53;5072998;28;20194;-75
2022/04/12 01:10:38;;;;;;;5.43;2.63;;;;;;;-145.69;79.44;71983.47;5072839;28;20195;-75
2022/04/12 01:13:05;;;;;;;4.53;2.43;;;;;;;-145.69;79.27;71983.47;5072642;28;20199;-75
2022/04/12 01:15:34;;;;;;;6.17;2.67;;;;;;;-145.69;81.50;72003.38;5071940;28;20230;-75
2022/04/12 01:18:01;;;;;;;3.07;2.10;;;;;;;-145.69;82.51;72021.28;5072537;28;20198;-75
2022/04/12 01:20:30;;;;;;;4.13;2.57;;;;;;;-145.69;84.08;72045.16;5072453;28;20236;-76
2022/04/12 01:23:01;;;;;;;4.50;2.70;;;;;;;-145.69;83.43;72035.22;5072420;28;20286;-75
2022/04/12 01:25:32;;;;;;;4.57;2.37;;;;;;;-145.69;83.91;72051.16;5072337;28;20202;-76
2022/04/12 01:28:00;;;;;;;7.53;2.00;;;;;;;-145.69;83.01;72039.19;5072536;28;20341;-75
2022/04/12 01:30:29;;;;;;;6.13;2.47;;;;;;;-145.69;82.59;72039.19;5071403;28;20488;-76
2022/04/12 01:32:55;;;;;;;3.17;2.10;;;;;;;-145.69;85.24;72057.13;5072280;28;20199;-75
2022/04/12 01:35:25;;;;;;;4.67;2.43;;;;;;;-145.69;83.57;72039.19;5072457;28;20206;-75
2022/04/12 01:37:53;;;;;;;3.73;2.50;;;;;;;-145.69;84.00;72027.25;5071358;28;21946;-75
2022/04/12 01:40:19;;;;;;;6.17;2.20;;;;;;;-145.69;83.68;72037.22;5072682;28;20620;-75
2022/04/12 01:42:52;;;;;;;4.53;2.20;;;;;;;-145.69;80.55;72003.38;5072522;28;20204;-75
2022/04/12 01:45:21;;;;;;;7.30;2.77;;;;;;;-145.69;77.01;71953.63;5072491;28;20669;-75
2022/04/12 01:47:50;;;;;;;5.90;2.63;;;;;;;-145.69;76.19;71931.72;5072371;28;20368;-75
2022/04/12 01:50:17;;;;;;;4.63;2.47;;;;;;;-145.69;78.83;71967.56;5072521;28;20206;-75
2022/04/12 01:52:43;;;;;;;5.40;2.23;;;;;;;-145.69;81.74;71999.41;5075531;28;20199;-76
2022/04/12 01:55:11;;;;;;;7.57;2.60;;;;;;;-145.69;83.42;72027.25;5076090;28;20252;-75
2022/04/12 01:57:37;;;;;;;3.63;2.40;;;;;;;-145.69;83.16;72017.31;5075852;28;20708;-75
2022/04/12 02:00:08;;;;;;;3.43;2.40;;;;;;;-145.69;83.60;72029.25;5075309;28;20198;-75
2022/04/12 02:02:35;;;;;;;6.40;2.47;;;;;;;-145.69;83.37;72027.25;5076217;28;20203;-75
2022/04/12 02:05:01;;;;;;;4.23;2.37;;;;;;;-145.69;83.78;72035.22;5073309;28;20196;-75
2022/04/12 02:07:28;;;;;;;6.37;2.97;;;;;;;-145.69;83.48;72039.19;5055908;28;20718;-75
2022/04/12 02:09:54;;;;;;;4.90;2.50;;;;;;;-145.69;83.11;72031.25;5055907;28;20650;-75
2022/04/12 02:12:21;;;;;;;4.37;2.30;;;;;;;-145.69;83.18;72031.25;5055736;28;20655;-76
2022/04/12 02:14:47;;;;;;;4.20;2.40;;;;;;;-145.69;82.98;72023.28;5055313;28;20227;-75
2022/04/12 02:17:15;;;;;;;6.83;2.40;;;;;;;-145.69;83.26;72021.28;5055931;28;20230;-75
2022/04/12 02:19:42;;;;;;;6.33;2.67;;;;;;;-145.69;82.48;72023.28;5074091;28;20684;-75
2022/04/12 02:22:08;;;;;;;4.03;2.10;;;;;;;-145.69;82.75;72017.31;5075843;28;20207;-75
2022/04/12 02:24:35;;;;;;;5.03;2.33;;;;;;;-145.69;82.97;72031.25;5075366;28;20578;-75
2022/04/12 02:27:02;;;;;;;4.03;2.17;;;;;;;-145.69;83.09;72035.22;5075408;28;20202;-75
2022/04/12 02:29:31;;;;;;;4.20;2.10;;;;;;;-145.69;83.38;72027.25;5075827;28;20535;-75
2022/04/12 02:31:59;;;;;;;3.87;2.10;;;;;;;-145.69;82.55;72015.31;5075182;28;20645;-75
2022/04/12 02:34:27;;;;;;;4.70;2.40;;;;;;;-145.69;81.90;72011.34;5075520;28;20202;-75
2022/04/12 02:36:53;;;;;;;4.23;2.17;;;;;;;-145.69;82.19;72015.31;5075278;28;20237;-75
2022/04/12 02:39:21;;;;;;;5.60;2.20;;;;;;;-145.69;82.01;72015.31;5074985;28;20226;-75
2022/04/12 02:41:48;;;;;;;3.23;2.13;;;;;;;-145.69;82.57;72019.31;5075304;28;20198;-74
2022/04/12 02:44:15;;;;;;;4.87;2.20;;;;;;;-145.69;84.16;72043.19;5075412;28;20206;-74
2022/04/12 02:46:42;;;;;;;4.83;2.20;;;;;;;-145.69;81.91;72017.31;5075394;28;20210;-75
2022/04/12 02:49:12;;;;;;;2.80;1.70;;;;;;;-145.69;79.93;71995.41;5075079;28;20194;-75
2022/04/12 02:51:43;;;;;;;3.80;1.83;;;;;;;-145.69;81.48;72013.31;5075354;28;20226;-75
2022/04/12 02:54:09;;;;;;;5.70;2.57;;;;;;;-145.69;82.13;72031.25;5074669;28;20210;-75
2022/04/12 02:56:36;;;;;;;7.57;2.00;;;;;;;-145.69;83.33;72043.19;5075328;28;20237;-75
2022/04/12 02:59:04;;;;;;;3.53;2.30;;;;;;;-145.69;84.31;72037.22;5074698;28;20535;-75
2022/04/12 03:01:31;;;;;;;3.10;2.30;;;;;;;-145.69;85.37;72047.16;5074751;28;20601;-75
2022/04/12 03:03:58;;;;;;;4.97;2.07;;;;;;;-145.69;84.23;72047.16;5074772;28;20392;-74
2022/04/12 03:06:24;;;;;;;3.87;2.00;;;;;;;-145.69;84.27;72043.19;5074663;28;20209;-75
2022/04/12 03:08:52;;;;;;;3.47;2.17;;;;;;;-145.69;82.29;72017.31;5074743;28;20202;-74
2022/04/12 03:11:19;;;;;;;5.43;2.33;;;;;;;-145.69;81.09;71999.41;5074971;28;20207;-75
2022/04/12 03:13:45;;;;;;;4.80;2.10;;;;;;;-145.69;80.78;71983.47;5074730;28;20207;-74
2022/04/12 03:16:17;;;;;;;3.80;2.33;;;;;;;-145.69;81.20;71981.50;5074116;28;20721;-75
2022/04/12 03:18:44;;;;;;;4.27;2.13;;;;;;;-145.69;81.61;71995.41;5074374;28;20199;-75
2022/04/12 03:21:10;;;;;;;12.97;2.27;;;;;;;-145.69;80.32;71985.47;5074449;28;20206;-75
2022/04/12 03:23:41;;;;;;;4.63;1.90;;;;;;;-145.69;81.05;71991.44;5074751;28;20203;-75
2022/04/12 03:26:11;;;;;;;4.63;2.40;;;;;;;-145.69;80.84;72003.38;5074476;28;20206;-75
2022/04/12 03:28:38;;;;;;;5.40;2.50;;;;;;;-145.69;81.79;72011.34;5074174;28;20202;-75
2022/04/12 03:31:05;;;;;;;3.87;1.90;;;;;;;-145.69;82.12;72019.31;5074389;28;20577;-75
2022/04/12 03:33:31;;;;;;;3.70;2.00;;;;;;;-145.69;81.77;72009.34;5074359;28;20252;-75
2022/04/12 03:35:59;;;;;;;3.73;1.83;;;;;;;-145.69;81.79;72031.25;5073824;28;20677;-75
2022/04/12 03:38:29;;;;;;;6.43;2.13;;;;;;;-145.69;82.55;72035.22;5074181;28;20199;-75
2022/04/12 03:40:59;;;;;;;4.43;2.40;;;;;;;-145.69;82.16;72035.22;5074352;28;20206;-75
2022/04/12 03:43:26;;;;;;;2.77;1.73;;;;;;;-145.69;81.79;72023.28;5074155;28;20195;-75
2022/04/12 03:45:53;;;;;;;4.60;1.60;;;;;;;-145.69;80.17;72003.38;5074193;28;20206;-75
2022/04/12 03:48:24;;;;;;;3.53;2.00;;;;;;;-145.69;80.52;72009.34;5073987;28;20198;-75
2022/04/12 03:50:51;;;;;;;3.50;1.83;;;;;;;-145.69;81.70;72017.31;5073478;28;20685;-75
2022/04/12 03:53:20;;;;;;;4.17;1.80;;;;;;;-145.69;82.23;72023.28;5073755;28;20209;-75
2022/04/12 03:55:48;;;;;;;4.50;1.83;;;;;;;-145.69;82.66;72029.25;5072952;28;20667;-75
2022/04/12 03:58:19;;;;;;;2.53;1.80;;;;;;;-145.69;83.73;72041.19;5055853;28;20223;-75
2022/04/12 04:00:47;;;;;;;4.77;1.90;;;;;;;-145.69;82.58;72045.16;5053887;28;20203;-75
2022/04/12 04:03:14;;;;;;;5.00;2.13;;;;;;;-145.69;83.25;72057.13;5053904;28;20203;-75
2022/04/12 04:05:40;;;;;;;3.37;1.73;;;;;;;-145.69;84.00;72071.03;5053965;28;20574;-75
2022/04/12 04:08:07;;;;;;;5.70;1.80;;;;;;;-145.69;84.90;72084.97;5073668;28;20213;-75
2022/04/12 04:10:35;;;;;;;2.40;1.70;;;;;;;-145.69;86.26;72094.94;5073455;28;20240;-75
2022/04/12 04:13:08;;;;;;;3.17;1.87;;;;;;;-145.69;86.36;72106.88;5073501;28;20668;-75
2022/04/12 04:15:36;;;;;;;3.17;2.00;;;;;;;-145.69;87.34;72106.88;5072916;28;20717;-75
2022/04/12 04:18:04;;;;;;;1.90;1.50;;;;;;;-145.69;88.08;72112.84;5073519;28;20690;-75
2022/04/12 04:20:33;;;;;;;2.20;1.57;;;;;;;-145.69;88.94;72138.72;5073594;28;20230;-75
2022/04/12 04:23:01;;;;;;;3.83;1.80;;;;;;;-145.69;89.24;72130.75;5073221;28;20569;-75
2022/04/12 04:25:28;;;;;;;2.50;1.57;;;;;;;-145.69;89.78;72150.66;5073141;28;20231;-75
2022/04/12 04:28:05;;;;;;;4.10;1.97;;;;;;;-145.69;90.25;72154.63;5073227;28;20289;-75
2022/04/12 04:30:33;;;;;;;3.70;1.90;;;;;;;-145.69;89.23;72140.69;5073497;28;20578;-75
2022/04/12 04:33:00;;;;;;;3.03;1.70;;;;;;;-145.69;88.63;72138.72;5073328;28;20649;-75
2022/04/12 04:35:31;;;;;;;2.57;1.80;;;;;;;-145.69;89.77;72138.72;5073183;28;20206;-75
2022/04/12 04:38:00;;;;;;;5.27;1.77;;;;;;;-145.69;89.41;72148.66;5073230;28;20679;-75
2022/04/12 04:40:28;;;;;;;2.43;1.70;;;;;;;-145.69;89.55;72150.66;5073188;28;20597;-75
2022/04/12 04:42:56;;;;;;;4.50;1.90;;;;;;;-145.69;89.09;72136.72;5073383;28;20195;-75
2022/04/12 04:45:26;;;;;;;5.83;1.80;;;;;;;-145.69;88.61;72130.75;5072801;28;20202;-75
2022/04/12 04:47:59;;;;;;;7.50;1.70;;;;;;;-145.69;88.59;72124.78;5072911;28;20681;-75
2022/04/12 04:50:27;;;;;;;4.90;1.70;;;;;;;-145.69;85.34;72081.00;5073210;28;20570;-75
2022/04/12 04:52:57;;;;;;;2.30;1.43;;;;;;;-145.69;85.29;72086.97;5072942;28;20203;-75
2022/04/12 04:55:26;;;;;;;2.30;1.57;;;;;;;-145.69;85.80;72075.03;5073440;28;20203;-75
2022/04/12 04:57:55;;;;;;;7.03;1.90;;;;;;;-145.69;86.63;72071.03;5071764;28;20457;-75
2022/04/12 05:00:25;;;;;;;3.03;1.73;;;;;;;-145.69;84.46;72057.13;5073131;28;20248;-75
2022/04/12 05:02:53;;;;;;;2.27;1.40;;;;;;;-145.69;83.55;72059.09;5072897;28;20255;-75
2022/04/12 05:05:23;;;;;;;4.23;1.60;;;;;;;-145.69;82.75;72039.19;5072754;28;20203;-75
2022/04/12 05:07:51;;;;;;;3.13;1.67;;;;;;;-145.69;83.01;72029.25;5073292;28;20198;-75
2022/04/12 05:10:22;;;;;;;2.97;1.63;;;;;;;-145.69;81.75;72019.31;5073082;28;20202;-75
2022/04/12 05:12:50;;;;;;;3.70;1.53;;;;;;;-145.69;80.78;71995.41;5072825;28;20209;-75
2022/04/12 05:15:18;;;;;;;2.90;1.40;;;;;;;-145.69;81.38;71985.47;5072760;28;20237;-75
2022/04/12 05:17:51;;;;;;;6.97;1.70;;;;;;;-145.69;79.73;71967.56;5072599;28;20238;-75
2022/04/12 05:20:19;;;;;;;2.90;1.30;;;;;;;-145.69;75.78;71943.69;5073139;28;20198;-75
2022/04/12 05:22:46;;;;;;;2.30;1.30;;;;;;;-145.69;76.46;71929.75;5072942;28;20202;-75
2022/04/12 05:25:12;;;;;;;1.37;1.20;;;;;;;-145.69;77.03;71931.72;5072437;28;20704;-75
2022/04/12 05:27:50;;;;;;;2.70;1.70;;;;;;;-145.69;76.48;71927.75;5075948;28;20199;-75
2022/04/12 05:30:19;;;;;;;1.70;1.23;;;;;;;-145.69;76.00;71931.72;5076770;28;20198;-75
2022/04/12 05:32:46;;;;;;;1.90;1.27;;;;;;;-145.69;73.78;71905.88;5076767;28;20213;-75
2022/04/12 05:35:13;;;;;;;1.77;1.20;;;;;;;-145.69;68.69;71850.13;5076808;28;20538;-75
2022/04/12 05:37:46;;;;;;;3.23;1.30;;;;;;;-145.69;67.53;71820.28;5076583;28;20231;-75
2022/04/12 05:40:18;;;;;;;2.57;1.10;;;;;;;-145.69;61.90;71766.56;5075992;28;20285;-75
2022/04/12 05:42:49;;;;;;;2.57;1.37;;;;;;;-145.69;60.39;71732.72;5076435;28;20198;-75
2022/04/12 05:45:16;;;;;;;3.17;1.47;;;;;;;-145.69;66.95;71760.59;5076682;28;20285;-75
2022/04/12 05:47:44;;;;;;;2.43;1.37;;;;;;;-145.69;66.53;71758.59;5076533;28;20198;-75
2022/04/12 05:50:12;;;;;;;1.77;1.30;;;;;;;-145.69;68.18;71784.47;5076061;28;20190;-75
2022/04/12 05:52:39;;;;;;;1.83;1.10;;;;;;;-145.69;68.17;71774.50;5076427;28;20198;-75
2022/04/12 05:55:08;;;;;;;2.40;1.37;;;;;;;-145.69;68.59;71760.59;5076530;28;20272;-75
2022/04/12 05:57:37;;;;;;;2.47;1.20;;;;;;;-145.69;67.10;71750.63;5076299;28;20229;-76
2022/04/12 06:00:07;;;;;;;4.80;1.40;;;;;;;-145.69;66.23;71740.69;5076076;28;20199;-75
2022/04/12 06:02:34;;;;;;;6.33;1.30;;;;;;;-145.69;64.91;71716.81;5076134;28;20198;-76
2022/04/12 06:05:00;;;;;;;2.23;1.27;;;;;;;-145.69;60.66;71692.94;5062733;28;20199;-75
2022/04/12 06:07:31;;;;;;;5.90;1.43;;;;;;;-145.69;61.07;71661.09;5056037;28;20211;-75
2022/04/12 06:09:57;;;;;;;3.53;1.30;;;;;;;-145.69;62.03;71645.16;5055931;28;20216;-75
2022/04/12 06:12:25;;;;;;;2.70;0.90;;;;;;;-145.69;61.48;71635.22;5055947;28;20204;-74
2022/04/12 06:14:53;;;;;;;2.80;1.40;;;;;;;-145.69;62.12;71617.31;5055858;28;20322;-75
2022/04/12 06:17:29;;;;;;;2.60;1.20;;;;;;;-145.69;59.71;71595.41;5055925;28;20234;-75
2022/04/12 06:19:59;;;;;;;2.37;1.20;;;;;;;-145.69;61.44;71573.53;5059165;28;20218;-74
2022/04/12 06:22:29;;;;;;;4.13;1.10;;;;;;;-145.69;63.14;71565.56;5075615;28;20206;-75
2022/04/12 06:24:58;;;;;;;4.73;1.30;;;;;;;-145.69;63.55;71537.72;5075548;28;20297;-75
2022/04/12 06:27:32;;;;;;;1.90;0.97;;;;;;;-145.69;58.04;71509.84;5075614;28;20569;-74
2022/04/12 06:29:59;;;;;;;1.60;0.90;;;;;;;-145.69;54.89;71478.00;5075458;28;20234;-74
2022/04/12 06:32:27;;;;;;;1.97;1.00;;;;;;;-145.69;52.34;71440.19;5076170;28;20198;-75
2022/04/12 06:34:54;;;;;;;0.97;0.80;;;;;;;-145.69;51.62;71400.41;5075455;28;20203;-75
2022/04/12 06:37:24;;;;;;;2.63;1.10;;;;;;;-145.69;51.82;71350.66;5074981;28;20229;-75
2022/04/12 06:39:50;;;;;;;2.90;1.00;;;;;;;-145.69;48.67;71314.84;5075364;28;20293;-75
2022/04/12 06:42:17;;;;;;;2.87;1.20;;;;;;;-145.69;47.25;71279.03;5075549;28;20199;-74
2022/04/12 06:44:43;;;;;;;2.10;1.20;;;;;;;-145.69;45.34;71229.28;5075371;28;20207;-75
2022/04/12 06:47:10;;;;;;;2.53;1.00;;;;;;;-145.69;45.85;71203.41;5075142;28;20210;-75
2022/04/12 06:49:42;;;;;;;4.90;1.00;;;;;;;-145.69;48.03;71191.47;5075077;28;20201;-75
2022/04/12 06:52:09;;;;;;;1.83;1.20;;;;;;;-145.69;40.61;71145.72;5075445;28;20260;-75
2022/04/12 06:54:37;;;;;;;2.03;1.03;;;;;;;-145.69;42.39;71092.00;5075175;28;20198;-75
2022/04/12 06:57:04;;;;;;;5.73;1.07;;;;;;;-145.69;43.72;71088.00;5075113;28;20572;-75
2022/04/12 06:59:32;;;;;;;2.10;1.20;;;;;;;-145.69;41.67;71072.09;5074882;28;20202;-75
2022/04/12 07:01:58;;;;;;;3.42;1.02;;;;;;;-145.69;42.56;71046.22;5074669;28;20646;-75
2022/04/12 07:04:26;;;;;;;3.40;1.40;;;;;;;-145.69;40.02;71034.28;5075201;28;20248;-75
2022/04/12 07:06:56;;;;;;;2.65;1.20;;;;;;;-145.69;40.61;71032.28;5074709;28;20650;-75
2022/04/12 07:09:24;;;;;;;2.17;0.85;;;;;;;-145.69;41.18;71010.41;5074754;28;20737;-75
2022/04/12 07:11:51;;;;;;;4.30;1.00;;;;;;;-145.69;37.42;71016.38;5074625;28;20256;-75
2022/04/12 07:14:17;;;;;;;3.70;1.27;;;;;;;-145.69;38.47;71002.44;5074576;28;20275;-75
2022/04/12 07:16:46;;;;;;;2.00;0.98;;;;;;;-145.69;38.27;70996.47;5074591;28;20202;-75
2022/04/12 07:19:14;;;;;;;2.13;1.27;;;;;;;-145.69;36.85;70974.59;5074819;28;20229;-76
2022/04/12 07:21:42;;;;;;;1.88;1.20;;;;;;;-145.69;37.35;70968.63;5074481;28;20206;-75
2022/04/12 07:24:10;;;;;;;3.40;1.08;;;;;;;-145.69;36.10;70966.63;5074503;28;20202;-74
2022/04/12 07:26:37;;;;;;;1.48;0.93;;;;;;;-145.69;35.26;70940.78;5074631;28;20195;-75
2022/04/12 07:29:04;;;;;;;2.55;1.08;;;;;;;-145.69;35.11;70920.88;5073803;28;20604;-75
2022/04/12 07:31:31;;;;;;;4.25;1.08;;;;;;;-145.69;34.88;70902.97;5074337;28;20649;-75
2022/04/12 07:34:00;;;;;;;5.43;0.90;;;;;;;-145.69;33.88;70897.00;5074574;28;20289;-75
2022/04/12 07:36:31;;;;;;;2.15;0.98;;;;;;;-145.69;33.85;70863.19;5074113;28;20570;-75
2022/04/12 07:38:58;;;;;;;1.67;1.00;;;;;;;-145.69;34.23;70861.19;5074361;28;20233;-75
2022/04/12 07:41:26;;;;;;;1.67;1.00;;;;;;;-145.69;34.53;70845.28;5073926;28;20195;-75
2022/04/12 07:43:53;;;;;;;1.23;0.82;;;;;;;-145.69;34.53;70839.31;5074530;28;20205;-74
2022/04/12 07:46:22;;;;;;;6.22;1.10;;;;;;;-145.69;32.92;70843.28;5074233;28;20260;-73
2022/04/12 07:48:49;;;;;;;2.97;0.98;;;;;;;-145.69;33.99;70813.44;5073458;28;20209;-74
2022/04/12 07:51:16;;;;;;;2.38;1.08;;;;;;;-145.69;32.39;70823.38;5074110;28;20206;-73
2022/04/12 07:53:42;;;;;;;2.42;0.98;;;;;;;-145.69;31.89;70809.47;5073996;28;20600;-74
2022/04/12 07:56:09;;;;;;;3.33;1.08;;;;;;;-145.69;32.71;70793.53;5073157;28;20198;-73
2022/04/12 07:58:37;;;;;;;3.58;1.35;;;;;;;-145.69;33.59;70817.41;5071377;28;20272;-73
2022/04/12 08:01:04;;;;;;;2.17;1.00;;;;;;;-145.69;33.82;70813.44;5074007;28;20199;-74
2022/04/12 08:03:30;;;;;;;3.45;1.10;;;;;;;-145.69;30.83;70821.41;5073821;28;20199;-74
2022/04/12 08:05:57;;;;;;;1.60;0.90;;;;;;;-145.69;36.55;70793.53;5073545;28;20832;-74
2022/04/12 08:08:23;;;;;;;4.13;1.08;;;;;;;-145.69;32.73;70815.44;5073928;28;20203;-74
2022/04/12 08:10:50;;;;;;;2.30;1.00;;;;;;;-145.69;34.93;70797.53;5073540;28;20593;-74
2022/04/12 08:13:17;;;;;;;2.42;1.20;;;;;;;-145.69;32.94;70825.38;5073782;28;20210;-74
2022/04/12 08:15:45;;;;;;;3.17;0.98;;;;;;;-145.69;31.84;70791.56;5073418;28;20223;-73
2022/04/12 08:18:12;;;;;;;2.65;1.00;;;;;;;-145.69;31.09;70781.59;5073502;28;20222;-74
2022/04/12 08:20:38;;;;;;;1.52;1.10;;;;;;;-145.69;31.57;70765.69;5073387;28;20285;-74
2022/04/12 08:23:05;;;;;;;1.45;0.85;;;;;;;-145.69;31.03;70777.63;5073383;28;20199;-74
2022/04/12 08:25:31;;;;;;;3.80;1.15;;;;;;;-145.69;32.06;70765.69;5073349;28;20613;-75
2022/04/12 08:27:58;;;;;;;3.65;1.00;;;;;;;-145.69;32.15;70743.81;5073353;28;20206;-74
2022/04/12 08:30:25;;;;;;;2.58;1.05;;;;;;;-145.69;30.02;70789.56;5073085;28;20203;-74
2022/04/12 08:32:56;;;;;;;2.47;1.20;;;;;;;-145.69;30.53;70777.63;5073175;28;20199;-74
2022/04/12 08:35:24;;;;;;;1.92;0.98;;;;;;;-145.69;30.06;70761.72;5072719;28;20668;-74
2022/04/12 08:37:56;;;;;;;2.90;0.88;;;;;;;-145.69;30.40;70727.88;5073006;28;20250;-74
2022/04/12 08:40:25;;;;;;;2.67;1.10;;;;;;;-145.69;30.52;70690.09;5073092;28;20202;-74
2022/04/12 08:42:55;;;;;;;1.23;0.70;;;;;;;-145.69;29.20;70670.19;5073096;28;20203;-74
2022/04/12 08:45:23;;;;;;;1.67;0.90;;;;;;;-145.69;30.28;70622.44;5073110;28;20195;-75
2022/04/12 08:47:54;;;;;;;3.22;1.00;;;;;;;-145.69;29.69;70578.69;5072771;28;20678;-73
2022/04/12 08:50:21;;;;;;;3.30;1.20;;;;;;;-145.69;29.30;70586.63;5072839;28;20203;-73
2022/04/12 08:52:54;;;;;;;1.48;0.85;;;;;;;-145.69;29.80;70614.47;5073248;28;20211;-74
2022/04/12 08:55:21;;;;;;;1.75;0.82;;;;;;;-145.69;29.73;70578.69;5073386;28;20564;-74
2022/04/12 08:57:47;;;;;;;1.23;0.80;;;;;;;-145.69;29.63;70594.59;5072908;28;20201;-74
2022/04/12 09:00:14;;;;;;;2.55;0.77;;;;;;;-145.69;29.38;70588.63;5072587;28;20199;-74
2022/04/12 09:02:41;;;;;;;1.95;0.80;;;;;;;-145.69;29.46;70594.59;5072560;28;20281;-74
2022/04/12 09:05:10;;;;;;;2.75;0.70;;;;;;;-145.69;29.53;70578.69;5072723;28;20661;-74
2022/04/12 09:07:46;;;;;;;2.22;0.90;;;;;;;-145.69;29.89;70564.75;5072884;28;20207;-74
2022/04/12 09:10:13;;;;;;;1.73;0.70;;;;;;;-145.69;29.41;70550.81;5072772;28;20206;-74
2022/04/12 09:12:39;;;;;;;4.03;0.80;;;;;;;-145.69;29.14;70548.84;5072850;28;20210;-74
2022/04/12 09:15:11;;;;;;;4.03;1.00;;;;;;;-145.69;30.54;70542.88;5071059;28;20292;-74
2022/04/12 09:17:41;;;;;;;1.20;0.80;;;;;;;-145.69;31.22;70552.81;5071211;28;20195;-74
2022/04/12 09:20:12;;;;;;;0.73;0.68;;;;;;;-145.69;31.45;70546.84;5071798;28;20285;-74
2022/04/12 09:22:44;;;;;;;1.45;0.80;;;;;;;-145.69;30.48;70524.97;5071760;28;20195;-73
2022/04/12 09:25:18;;;;;;;4.63;0.90;;;;;;;-145.69;32.22;70530.94;5072055;28;20285;-74
2022/04/12 09:27:49;;;;;;;1.02;0.70;;;;;;;-145.69;29.30;70534.91;5071996;28;20199;-74
2022/04/12 09:30:16;;;;;;;1.55;0.85;;;;;;;-145.69;30.47;70546.84;5072371;28;20202;-74
2022/04/12 09:32:47;;;;;;;2.63;0.80;;;;;;;-145.69;30.80;70532.91;5072712;28;20248;-74
2022/04/12 09:35:17;;;;;;;4.22;1.05;;;;;;;-145.69;31.28;70530.94;5072665;28;20260;-74
2022/04/12 09:37:45;;;;;;;0.85;0.68;;;;;;;-145.69;30.74;70507.06;5072250;28;20676;-74
2022/04/12 09:40:15;;;;;;;2.63;0.82;;;;;;;-145.69;30.88;70493.13;5072271;28;20580;-74
2022/04/12 09:42:48;;;;;;;1.60;0.82;;;;;;;-145.69;31.06;70491.13;5072419;28;20202;-74
2022/04/12 09:45:18;;;;;;;1.33;0.70;;;;;;;-145.69;32.18;70481.19;5072595;28;20202;-74
2022/04/12 09:47:46;;;;;;;5.20;0.85;;;;;;;-145.69;30.00;70499.09;5072401;28;20226;-74
2022/04/12 09:50:16;;;;;;;1.77;0.70;;;;;;;-145.69;31.17;70489.16;5068521;28;20202;-74
2022/04/12 09:52:55;;;;;;;1.60;0.80;;;;;;;-145.69;30.37;70491.13;5052306;28;20207;-74
2022/04/12 09:55:38;;;;;;;1.92;0.70;;;;;;;-145.69;29.90;70528.94;5052362;28;20214;-73
2022/04/12 09:58:09;;;;;;;1.38;0.80;;;;;;;-145.69;30.19;70528.94;5065158;28;20542;-73
2022/04/12 10:00:38;;;;;;;2.00;0.90;;;;;;;-145.69;30.02;70528.94;5072105;28;20535;-74
2022/04/12 10:03:06;;;;;;;3.47;1.08;;;;;;;-145.69;30.92;70505.06;5071793;28;20254;-74
2022/04/12 10:05:34;;;;;;;1.42;0.85;;;;;;;-145.69;29.88;70501.09;5071753;28;20680;-74
2022/04/12 10:08:04;;;;;;;1.73;0.90;;;;;;;-145.69;31.24;70469.25;5072313;28;20214;-74
2022/04/12 10:10:31;;;;;;;1.23;0.90;;;;;;;-145.69;34.85;70439.41;5072202;28;20211;-74
2022/04/12 10:12:59;;;;;;;3.53;1.30;;;;;;;-145.69;32.66;70431.47;5074098;28;20624;-74
2022/04/12 10:15:29;;;;;;;3.35;1.00;;;;;;;-145.69;32.84;70403.59;5075916;28;20230;-74
2022/04/12 10:17:56;;;;;;;2.45;0.80;;;;;;;-145.69;31.58;70401.63;5075461;28;20624;-74
2022/04/12 10:20:24;;;;;;;2.08;0.82;;;;;;;-145.69;34.65;70391.66;5075949;28;20202;-74
2022/04/12 10:22:54;;;;;;;2.35;1.08;;;;;;;-145.69;32.25;70371.78;5075563;28;20202;-74
2022/04/12 10:25:22;;;;;;;2.75;1.05;;;;;;;-145.69;34.08;70328.00;5075829;28;20297;-74
2022/04/12 10:27:54;;;;;;;3.35;0.95;;;;;;;-145.69;32.53;70312.09;5075750;28;20569;-74
2022/04/12 10:30:27;;;;;;;1.95;0.90;;;;;;;-145.69;31.11;70314.09;5075489;28;20680;-74
2022/04/12 10:33:06;;;;;;;1.33;0.80;;;;;;;-145.69;30.96;70330.00;5075793;28;20194;-74
2022/04/12 10:35:59;;;;;;;1.88;0.98;;;;;;;-145.69;31.86;70300.16;5075532;28;20553;-74
2022/04/12 10:38:40;;;;;;;4.35;0.95;;;;;;;-145.69;30.47;70244.47;5074282;28;20450;-74
2022/04/12 10:41:17;;;;;;;2.58;0.80;;;;;;;-145.69;30.39;70220.59;5075578;28;20205;-74
2022/04/12 10:43:44;;;;;;;5.38;0.70;;;;;;;-145.69;29.79;70244.47;5075589;28;20229;-74
2022/04/12 10:46:14;;;;;;;3.40;0.98;;;;;;;-145.69;34.00;70250.44;5075435;28;20205;-74
2022/04/12 10:48:40;;;;;;;2.05;0.88;;;;;;;-145.69;30.16;70250.44;5075077;28;20525;-74
2022/04/12 10:51:08;;;;;;;1.85;0.70;;;;;;;-145.69;30.91;70262.38;5075022;28;20199;-73
2022/04/12 10:53:55;;;;;;;1.17;0.70;;;;;;;-145.69;31.12;70272.31;5075211;28;20569;-73
2022/04/12 10:56:26;;;;;;;2.15;0.73;;;;;;;-145.69;29.65;70284.25;5074802;28;20207;-74
2022/04/12 10:58:52;;;;;;;1.67;0.80;;;;;;;-145.69;31.51;70296.19;5075155;28;20262;-73
2022/04/12 11:01:31;;;;;;;1.00;0.80;;;;;;;-145.69;31.62;70260.38;5075000;28;20202;-73
2022/04/12 11:03:59;;;;;;;2.97;0.75;;;;;;;-145.69;31.47;70240.47;5075176;28;20195;-74
2022/04/12 11:06:28;;;;;;;3.55;0.70;;;;;;;-145.69;30.79;70180.81;5074921;28;20554;-74
2022/04/12 11:09:07;;;;;;;0.50;0.50;;;;;;;-145.69;31.25;70164.88;5074971;28;20260;-74
2022/04/12 11:11:41;;;;;;;1.55;0.70;;;;;;;-145.69;30.29;70107.19;5074659;28;20198;-74
2022/04/12 11:14:28;;;;;;;1.75;0.70;;;;;;;-145.69;29.64;70111.19;5074766;28;20227;-74
2022/04/12 11:17:01;;;;;;;1.02;0.60;;;;;;;-145.69;31.37;70117.16;5074533;28;20195;-74
2022/04/12 11:19:28;;;;;;;4.55;1.20;;;;;;;-145.69;31.25;70023.66;5072111;28;20549;-74
2022/04/12 11:22:14;;;;;;;1.95;0.80;;;;;;;-145.69;29.57;70013.72;5074773;28;20206;-74
2022/04/12 11:24:43;;;;;;;3.85;0.70;;;;;;;-145.69;28.99;70047.53;5074540;28;20584;-74
2022/04/12 11:27:10;;;;;;;0.82;0.63;;;;;;;-145.69;29.80;70057.47;5074475;28;20206;-74